Time;durP1;ratioP1;P1;durP2;ratioP2;P2;SDS_P1;SDS_P2;PMS_P1;PMS_P2;Temp;Humidity;BMP_temperature;BMP_pressure;BME280_temperature;BME280_humidity;BME280_pressure;Samples;Min_cycle;Max_cycle;Signal;HPM_P1;HPM_P2
2024/03/30 00:00:48;;;;;;;13.00;7.00;;;;;;;10.25;60.60;99999.20;109063;1255;137707;-67
2024/03/30 00:03:35;;;;;;;15.00;6.10;;;;;;;10.29;60.64;100008.55;108724;1256;67639;-67
2024/03/30 00:06:02;;;;;;;14.90;6.80;;;;;;;10.30;60.60;100012.63;104908;1259;138651;-66
2024/03/30 00:08:29;;;;;;;13.00;6.10;;;;;;;10.27;60.48;100019.91;104873;1254;61236;-67
2024/03/30 00:11:03;;;;;;;17.50;7.10;;;;;;;10.27;60.63;100020.44;104984;1257;137970;-67
2024/03/30 00:13:30;;;;;;;11.50;5.80;;;;;;;10.28;60.61;100020.63;104849;1262;73866;-66
2024/03/30 00:15:57;;;;;;;11.10;6.30;;;;;;;10.26;60.61;100021.48;105145;1257;66383;-69
2024/03/30 00:18:24;;;;;;;13.30;8.10;;;;;;;10.27;60.67;100019.21;104753;1256;138034;-66
2024/03/30 00:20:50;;;;;;;10.80;5.80;;;;;;;10.29;60.78;100013.80;105060;1254;60245;-66
2024/03/30 00:23:17;;;;;;;10.80;6.10;;;;;;;10.29;60.75;100009.77;104959;1259;138001;-66
2024/03/30 00:25:54;;;;;;;11.90;8.50;;;;;;;10.23;60.63;100015.99;105090;1254;75320;-66
2024/03/30 00:28:20;;;;;;;8.30;5.40;;;;;;;10.15;60.70;100014.30;105044;1259;66144;-66
2024/03/30 00:30:47;;;;;;;12.40;6.00;;;;;;;10.08;60.78;100012.62;104991;1254;137366;-67
2024/03/30 00:33:15;;;;;;;8.10;5.00;;;;;;;10.03;60.99;100016.92;109176;1257;58965;-67
2024/03/30 00:35:42;;;;;;;12.00;5.30;;;;;;;10.00;61.11;100017.23;109101;1254;137617;-67
2024/03/30 00:38:09;;;;;;;10.70;5.60;;;;;;;9.97;61.19;100016.32;105175;1259;74701;-66
2024/03/30 00:40:36;;;;;;;10.80;5.60;;;;;;;9.92;61.23;100011.32;104859;1261;138390;-67
2024/03/30 00:43:03;;;;;;;10.90;5.50;;;;;;;9.88;61.30;100007.05;105171;1254;73023;-67
2024/03/30 00:45:30;;;;;;;10.60;5.00;;;;;;;9.87;61.46;100003.72;105153;1256;61212;-67
2024/03/30 00:47:56;;;;;;;11.10;5.80;;;;;;;9.90;61.70;100004.98;104866;1261;137690;-67
2024/03/30 00:50:23;;;;;;;11.10;5.90;;;;;;;9.93;61.76;100008.70;105118;1254;74320;-67
2024/03/30 00:52:50;;;;;;;12.70;6.60;;;;;;;9.97;61.84;100014.38;105055;1254;138914;-67
2024/03/30 00:55:16;;;;;;;10.80;5.20;;;;;;;9.97;61.83;100022.09;105119;1254;72754;-67
2024/03/30 00:57:43;;;;;;;10.90;5.60;;;;;;;9.98;61.93;100020.70;105119;1257;61346;-67
2024/03/30 01:00:10;;;;;;;12.50;6.00;;;;;;;10.00;62.00;100022.81;105038;1257;138001;-67
2024/03/30 01:02:41;;;;;;;11.00;5.80;;;;;;;10.02;61.93;100027.41;108975;1254;73878;-67
2024/03/30 01:05:08;;;;;;;13.10;6.10;;;;;;;10.04;61.96;100031.67;109079;1254;137718;-68
2024/03/30 01:07:35;;;;;;;9.00;5.40;;;;;;;10.06;61.99;100034.67;106644;1258;71541;-68
2024/03/30 01:10:03;;;;;;;10.80;6.00;;;;;;;10.07;62.07;100031.02;104967;1257;61497;-67
2024/03/30 01:12:30;;;;;;;11.80;6.10;;;;;;;10.09;61.98;100028.77;108965;1254;137894;-67
2024/03/30 01:14:57;;;;;;;9.10;5.60;;;;;;;10.10;61.92;100032.82;109241;1254;74762;-68
2024/03/30 01:17:24;;;;;;;11.30;5.60;;;;;;;10.10;61.92;100035.45;106102;1259;137446;-67
2024/03/30 01:19:51;;;;;;;11.90;5.30;;;;;;;10.12;61.83;100038.81;109174;1254;73993;-67
2024/03/30 01:22:18;;;;;;;10.10;4.80;;;;;;;10.14;61.94;100043.05;109143;1255;59296;-68
2024/03/30 01:24:45;;;;;;;9.20;5.30;;;;;;;10.15;61.88;100045.69;108972;1254;138310;-67
2024/03/30 01:27:14;;;;;;;10.80;4.40;;;;;;;10.15;61.91;100043.92;109204;1254;73477;-67
2024/03/30 01:29:42;;;;;;;8.50;5.20;;;;;;;10.16;61.91;100049.90;105117;1254;138535;-67
2024/03/30 01:32:10;;;;;;;11.40;5.00;;;;;;;10.17;61.97;100050.80;109030;1254;73118;-67
2024/03/30 01:34:37;;;;;;;8.70;5.20;;;;;;;10.18;61.95;100052.04;109083;1254;137698;-68
2024/03/30 01:37:04;;;;;;;9.40;5.10;;;;;;;10.20;61.93;100051.02;109218;1255;59006;-68
2024/03/30 01:39:30;;;;;;;10.40;5.80;;;;;;;10.21;61.99;100052.27;109347;1254;72866;-68
2024/03/30 01:41:57;;;;;;;10.30;5.90;;;;;;;10.24;61.95;100048.29;109018;1254;138886;-67
2024/03/30 01:44:24;;;;;;;13.80;5.50;;;;;;;10.26;62.03;100054.44;109294;1254;71412;-68
2024/03/30 01:46:50;;;;;;;32.60;9.40;;;;;;;10.28;62.12;100052.72;104929;1261;138647;-67
2024/03/30 01:49:17;;;;;;;16.50;7.90;;;;;;;10.30;62.07;100046.09;104883;1254;61295;-67
2024/03/30 01:51:45;;;;;;;12.30;6.30;;;;;;;10.31;62.11;100044.04;105012;1259;75424;-67
2024/03/30 01:54:11;;;;;;;14.60;7.90;;;;;;;10.32;62.17;100040.88;109020;1255;144847;-67
2024/03/30 01:56:38;;;;;;;13.60;6.00;;;;;;;10.31;62.12;100043.50;105497;1255;71639;-67
2024/03/30 01:59:05;;;;;;;9.60;4.80;;;;;;;10.32;62.22;100055.44;104997;1259;138015;-67
2024/03/30 02:01:31;;;;;;;8.50;4.70;;;;;;;10.31;62.29;100062.61;105083;1257;61239;-67
2024/03/30 02:03:58;;;;;;;7.30;4.50;;;;;;;10.30;62.31;100061.52;104930;1257;76047;-67
2024/03/30 02:06:26;;;;;;;10.10;5.80;;;;;;;10.28;62.55;100062.71;104952;1257;137486;-67
2024/03/30 02:08:53;;;;;;;11.70;4.90;;;;;;;10.24;62.50;100063.01;105113;1254;71920;-68
2024/03/30 02:11:19;;;;;;;13.20;4.70;;;;;;;10.21;62.49;100066.30;104720;1259;137822;-68
2024/03/30 02:13:46;;;;;;;14.20;5.90;;;;;;;10.18;62.58;100076.77;105137;1259;61166;-68
2024/03/30 02:16:13;;;;;;;17.70;7.70;;;;;;;10.13;62.69;100081.95;104885;1254;75096;-67
2024/03/30 02:18:40;;;;;;;14.30;7.20;;;;;;;10.07;62.82;100086.95;104944;1256;138424;-67
2024/03/30 02:21:07;;;;;;;13.80;7.00;;;;;;;10.01;62.89;100091.21;104891;1257;73015;-67
2024/03/30 02:23:33;;;;;;;11.00;6.60;;;;;;;9.97;63.17;100095.52;104909;1254;138819;-67
2024/03/30 02:26:00;;;;;;;17.30;6.90;;;;;;;9.92;63.16;100094.75;105065;1259;61433;-66
2024/03/30 02:28:27;;;;;;;12.00;7.60;;;;;;;9.90;63.34;100096.45;104861;1254;137800;-67
2024/03/30 02:30:54;;;;;;;14.30;7.20;;;;;;;9.87;63.44;100092.57;105131;1259;66850;-67
2024/03/30 02:33:20;;;;;;;16.40;7.90;;;;;;;9.86;63.56;100093.24;105131;1258;73515;-67
2024/03/30 02:35:48;;;;;;;17.40;8.50;;;;;;;9.85;63.71;100091.48;104996;1254;137535;-67
2024/03/30 02:38:14;;;;;;;12.60;6.40;;;;;;;9.83;63.85;100091.78;104960;1260;61292;-68
2024/03/30 02:40:54;;;;;;;10.30;5.00;;;;;;;9.81;63.92;100095.24;104861;1259;137871;-67
2024/03/30 02:43:21;;;;;;;9.20;5.10;;;;;;;9.78;63.82;100095.02;104994;1259;66709;-68
2024/03/30 02:45:48;;;;;;;11.10;4.90;;;;;;;9.76;63.90;100095.52;105097;1257;72190;-67
2024/03/30 02:48:15;;;;;;;9.60;5.00;;;;;;;9.73;64.00;100096.17;108905;1254;137667;-68
2024/03/30 02:50:42;;;;;;;7.90;4.70;;;;;;;9.72;64.14;100096.67;109254;1254;59086;-68
2024/03/30 02:53:08;;;;;;;11.30;5.00;;;;;;;9.72;64.15;100092.48;109230;1253;137493;-68
2024/03/30 02:55:35;;;;;;;12.00;5.60;;;;;;;9.72;64.24;100097.22;105922;1254;66694;-67
2024/03/30 02:58:02;;;;;;;7.60;4.50;;;;;;;9.72;64.25;100097.89;105247;1257;72706;-67
2024/03/30 03:00:28;;;;;;;11.60;5.20;;;;;;;9.70;64.31;100104.34;104992;1254;137930;-67
2024/03/30 03:02:55;;;;;;;10.20;4.80;;;;;;;9.66;64.37;100105.52;105075;1259;61255;-67
2024/03/30 03:05:22;;;;;;;7.00;4.60;;;;;;;9.62;64.47;100106.48;105038;1257;138419;-67
2024/03/30 03:07:49;;;;;;;8.90;5.80;;;;;;;9.58;64.65;100107.98;105045;1257;66381;-67
2024/03/30 03:10:15;;;;;;;14.00;5.70;;;;;;;9.54;64.81;100107.20;105166;1259;73112;-67
2024/03/30 03:12:42;;;;;;;11.20;5.40;;;;;;;9.48;64.94;100103.41;104997;1255;138614;-67
2024/03/30 03:15:08;;;;;;;10.40;5.30;;;;;;;9.44;64.97;100105.79;105010;1254;61847;-67
2024/03/30 03:17:35;;;;;;;11.40;5.80;;;;;;;9.41;65.06;100104.15;105004;1254;137688;-67
2024/03/30 03:20:05;;;;;;;9.20;5.30;;;;;;;9.38;65.10;100102.54;105426;1257;67328;-68
2024/03/30 03:22:33;;;;;;;8.50;4.90;;;;;;;9.36;65.19;100105.11;106648;1254;138252;-66
2024/03/30 03:25:02;;;;;;;9.90;5.30;;;;;;;9.35;65.33;100101.05;105667;1254;61230;-66
2024/03/30 03:27:29;;;;;;;8.40;5.10;;;;;;;9.33;65.31;100108.21;105219;1254;61192;-67
2024/03/30 03:29:55;;;;;;;8.70;5.50;;;;;;;9.31;65.36;100111.67;104978;1256;138062;-66
2024/03/30 03:32:22;;;;;;;15.40;5.30;;;;;;;9.27;65.43;100112.99;105161;1259;67234;-66
2024/03/30 03:34:49;;;;;;;8.10;5.10;;;;;;;9.24;65.61;100110.33;104896;1254;138701;-66
2024/03/30 03:37:15;;;;;;;12.70;5.70;;;;;;;9.22;65.72;100115.86;105184;1254;61359;-66
2024/03/30 03:39:42;;;;;;;12.50;5.50;;;;;;;9.20;65.83;100118.98;105172;1257;61347;-65
2024/03/30 03:42:08;;;;;;;12.20;4.80;;;;;;;9.18;65.91;100118.75;104840;1254;144771;-66
2024/03/30 03:44:35;;;;;;;11.20;4.90;;;;;;;9.15;66.07;100116.44;105153;1259;65553;-66
2024/03/30 03:47:02;;;;;;;13.20;5.20;;;;;;;9.14;66.18;100116.41;104922;1254;138738;-67
2024/03/30 03:49:29;;;;;;;10.00;4.80;;;;;;;9.12;66.36;100114.61;105051;1255;61285;-68
2024/03/30 03:51:56;;;;;;;7.90;4.70;;;;;;;9.12;66.42;100116.71;105184;1257;61625;-67
2024/03/30 03:54:23;;;;;;;15.30;4.80;;;;;;;9.13;66.54;100117.62;105001;1257;137618;-67
2024/03/30 03:56:50;;;;;;;9.30;4.70;;;;;;;9.15;66.65;100120.98;105062;1254;66941;-67
2024/03/30 03:59:16;;;;;;;10.60;5.30;;;;;;;9.19;66.62;100131.20;105165;1256;137897;-66
2024/03/30 04:01:43;;;;;;;8.40;4.80;;;;;;;9.22;66.76;100134.77;105121;1257;61241;-66
2024/03/30 04:04:09;;;;;;;9.10;4.80;;;;;;;9.25;66.76;100139.21;104978;1259;61143;-67
2024/03/30 04:06:36;;;;;;;11.40;5.30;;;;;;;9.30;66.81;100141.76;105021;1254;137299;-67
2024/03/30 04:09:03;;;;;;;8.30;4.90;;;;;;;9.31;66.82;100141.80;105111;1259;67377;-67
2024/03/30 04:11:30;;;;;;;11.90;5.40;;;;;;;9.32;66.83;100137.95;104784;1256;137342;-67
2024/03/30 04:13:58;;;;;;;9.20;5.40;;;;;;;9.34;66.86;100143.77;104910;1261;61121;-67
2024/03/30 04:16:24;;;;;;;9.80;4.90;;;;;;;9.34;66.93;100143.07;109183;1256;59594;-67
2024/03/30 04:18:52;;;;;;;10.80;5.50;;;;;;;9.35;66.93;100143.96;107768;1254;137535;-67
2024/03/30 04:21:18;;;;;;;11.30;4.90;;;;;;;9.36;67.01;100151.70;105124;1259;66613;-67
2024/03/30 04:23:45;;;;;;;8.60;4.70;;;;;;;9.38;67.04;100155.77;104802;1259;138552;-67
2024/03/30 04:26:15;;;;;;;10.00;5.60;;;;;;;9.40;67.03;100155.09;105132;1254;61257;-67
2024/03/30 04:28:42;;;;;;;13.20;5.40;;;;;;;9.41;67.10;100150.91;104990;1255;138640;-67
2024/03/30 04:31:10;;;;;;;11.60;5.30;;;;;;;9.42;67.04;100154.98;105091;1258;75164;-67
2024/03/30 04:33:36;;;;;;;11.30;5.50;;;;;;;9.42;67.14;100163.90;108419;1259;64688;-68
2024/03/30 04:36:04;;;;;;;10.10;5.90;;;;;;;9.44;67.07;100167.79;105015;1254;138952;-67
2024/03/30 04:38:32;;;;;;;14.40;6.20;;;;;;;9.45;67.14;100165.88;107294;1258;61383;-65
2024/03/30 04:40:59;;;;;;;7.70;5.00;;;;;;;9.44;67.06;100159.71;109198;1254;137759;-66
2024/03/30 04:43:27;;;;;;;9.20;5.80;;;;;;;9.44;67.16;100160.08;105789;1254;74418;-66
2024/03/30 04:45:54;;;;;;;9.70;5.60;;;;;;;9.45;67.24;100167.46;104861;1258;314925;-66
2024/03/30 04:48:23;;;;;;;13.90;5.30;;;;;;;9.45;67.19;100170.26;104826;1257;137526;-66
2024/03/30 04:50:50;;;;;;;11.00;6.00;;;;;;;9.45;67.40;100176.39;105952;1257;61436;-66
2024/03/30 04:53:24;;;;;;;10.90;6.00;;;;;;;9.48;67.44;100183.45;105018;1259;138039;-66
2024/03/30 04:55:51;;;;;;;8.80;5.20;;;;;;;9.50;67.39;100187.70;104897;1254;75324;-66
2024/03/30 04:58:22;;;;;;;8.30;5.70;;;;;;;9.52;67.45;100187.73;105174;1254;65746;-66
2024/03/30 05:00:49;;;;;;;14.90;5.70;;;;;;;9.54;67.42;100188.66;105077;1257;138123;-67
2024/03/30 05:03:16;;;;;;;13.90;5.80;;;;;;;9.56;67.42;100186.95;105126;1256;61232;-67
2024/03/30 05:05:43;;;;;;;8.50;5.10;;;;;;;9.62;67.50;100185.66;106407;1259;140094;-67
2024/03/30 05:08:10;;;;;;;12.90;5.50;;;;;;;9.69;67.41;100181.41;106672;1254;75673;-67
2024/03/30 05:10:40;;;;;;;11.80;6.10;;;;;;;9.75;67.31;100181.70;105280;1254;138897;-67
2024/03/30 05:13:07;;;;;;;11.60;6.60;;;;;;;9.81;67.30;100181.13;105535;1257;74123;-68
2024/03/30 05:15:38;;;;;;;10.20;6.10;;;;;;;9.87;67.21;100184.73;104954;1260;61385;-67
2024/03/30 05:18:06;;;;;;;11.30;6.00;;;;;;;9.93;67.24;100181.02;104874;1254;137513;-67
2024/03/30 05:20:51;;;;;;;11.50;6.00;;;;;;;10.00;67.21;100183.23;107238;1254;74772;-67
2024/03/30 05:23:25;;;;;;;12.50;6.20;;;;;;;10.09;67.23;100181.80;104941;1257;137709;-68
2024/03/30 05:25:52;;;;;;;11.40;6.60;;;;;;;10.17;67.15;100181.06;108505;1254;70718;-68
2024/03/30 05:28:23;;;;;;;11.80;7.20;;;;;;;10.23;67.11;100176.97;106303;1257;61123;-66
2024/03/30 05:30:51;;;;;;;15.60;7.30;;;;;;;10.32;67.03;100173.98;107604;1257;137751;-66
2024/03/30 05:33:19;;;;;;;12.90;6.90;;;;;;;10.40;67.01;100170.97;105045;1255;75957;-66
2024/03/30 05:35:47;;;;;;;14.00;6.50;;;;;;;10.47;66.89;100174.42;105004;1253;139198;-67
2024/03/30 05:38:14;;;;;;;14.20;7.50;;;;;;;10.54;66.81;100178.20;107374;1254;72884;-67
2024/03/30 05:40:41;;;;;;;12.80;7.00;;;;;;;10.61;66.71;100180.43;105290;1259;138983;-67
2024/03/30 05:43:08;;;;;;;13.20;6.90;;;;;;;10.72;66.79;100182.00;104965;1259;61457;-67
2024/03/30 05:45:36;;;;;;;15.50;7.70;;;;;;;10.86;66.77;100183.61;104886;1259;75737;-67
2024/03/30 05:48:03;;;;;;;13.80;7.30;;;;;;;10.96;66.65;100184.48;105554;1257;137670;-67
2024/03/30 05:50:30;;;;;;;15.10;7.70;;;;;;;11.07;66.48;100193.73;104986;1254;73105;-67
2024/03/30 05:52:57;;;;;;;14.90;8.10;;;;;;;11.13;66.37;100191.89;105069;1254;137875;-67
2024/03/30 05:55:23;;;;;;;14.60;7.50;;;;;;;11.18;66.31;100195.98;105074;1254;61220;-67
2024/03/30 05:57:51;;;;;;;16.10;7.30;;;;;;;11.22;66.18;100197.45;105123;1259;72986;-67
2024/03/30 06:00:17;;;;;;;12.30;7.10;;;;;;;11.29;66.30;100191.23;105047;1258;137780;-67
2024/03/30 06:02:44;;;;;;;11.70;6.80;;;;;;;11.37;66.08;100193.96;105130;1254;73182;-67
2024/03/30 06:05:12;;;;;;;12.50;6.60;;;;;;;11.41;65.89;100194.38;105961;1254;138299;-66
2024/03/30 06:07:39;;;;;;;11.80;6.00;;;;;;;11.46;65.73;100195.48;105078;1259;61196;-67
2024/03/30 06:10:07;;;;;;;9.30;6.00;;;;;;;11.54;65.68;100202.08;105100;1254;75120;-67
2024/03/30 06:12:34;;;;;;;11.40;5.40;;;;;;;11.60;65.61;100199.71;106689;1259;137730;-66
2024/03/30 06:15:01;;;;;;;10.20;5.90;;;;;;;11.68;65.52;100199.09;108999;1254;72360;-67
2024/03/30 06:17:28;;;;;;;9.70;5.80;;;;;;;11.74;65.45;100199.68;106032;1259;137628;-67
2024/03/30 06:19:55;;;;;;;10.20;5.60;;;;;;;11.82;65.42;100203.30;105255;1254;61139;-67
2024/03/30 06:22:26;;;;;;;8.90;5.40;;;;;;;11.92;65.32;100207.81;105428;1257;75740;-67
2024/03/30 06:24:53;;;;;;;11.70;6.10;;;;;;;12.02;65.28;100210.92;105096;1258;66105;-66
2024/03/30 06:27:20;;;;;;;9.90;5.70;;;;;;;12.14;65.20;100213.50;106743;1255;73245;-67
2024/03/30 06:29:50;;;;;;;11.30;6.30;;;;;;;12.25;64.96;100216.25;105053;1259;137616;-66
2024/03/30 06:32:17;;;;;;;12.80;6.40;;;;;;;12.36;64.85;100222.86;105123;1258;61244;-67
2024/03/30 06:34:43;;;;;;;9.60;5.90;;;;;;;12.45;64.52;100219.24;105856;1259;137942;-66
2024/03/30 06:37:10;;;;;;;12.30;6.20;;;;;;;12.54;64.43;100221.45;105076;1258;67656;-67
2024/03/30 06:45:08;;;;;;;12.20;6.50;;;;;;;12.74;63.70;100221.60;105166;1254;61273;-67
2024/03/30 06:47:35;;;;;;;9.80;6.00;;;;;;;12.74;63.64;100222.65;105086;1255;138403;-67
2024/03/30 06:50:01;;;;;;;12.60;6.30;;;;;;;12.74;63.60;100222.31;105103;1254;64830;-67
2024/03/30 06:52:28;;;;;;;13.80;7.20;;;;;;;12.76;63.50;100227.08;105018;1260;139315;-68
2024/03/30 06:54:55;;;;;;;12.20;7.20;;;;;;;12.75;63.29;100233.92;108430;1254;59285;-67
2024/03/30 06:57:21;;;;;;;13.80;6.50;;;;;;;12.72;63.23;100232.67;105082;1260;61502;-66
2024/03/30 06:59:48;;;;;;;17.20;6.20;;;;;;;12.69;63.09;100230.70;105062;1257;137710;-66
2024/03/30 07:02:14;;;;;;;17.80;9.10;;;;;;;12.68;63.17;100231.05;105087;1258;66618;-66
2024/03/30 07:04:41;;;;;;;13.80;7.80;;;;;;;12.70;63.20;100232.65;104981;1258;137956;-66
2024/03/30 07:07:08;;;;;;;11.60;7.00;;;;;;;12.71;63.10;100227.91;104961;1259;61346;-67
2024/03/30 07:09:34;;;;;;;14.80;6.60;;;;;;;12.74;63.15;100230.23;105266;1259;61234;-67
2024/03/30 07:12:01;;;;;;;11.00;7.10;;;;;;;12.77;63.06;100228.67;104783;1260;138160;-67
2024/03/30 07:14:28;;;;;;;22.30;6.90;;;;;;;12.79;62.90;100234.48;104940;1254;67238;-67
2024/03/30 07:16:55;;;;;;;12.60;6.60;;;;;;;12.82;62.86;100239.08;104943;1258;137886;-68
2024/03/30 07:19:22;;;;;;;11.00;7.10;;;;;;;12.89;62.86;100248.46;105056;1259;61244;-67
2024/03/30 07:21:50;;;;;;;11.10;6.40;;;;;;;12.96;62.76;100252.92;105117;1257;61280;-68
2024/03/30 07:24:17;;;;;;;13.50;6.70;;;;;;;13.04;62.66;100255.80;104808;1255;137849;-67
2024/03/30 07:26:44;;;;;;;10.30;5.90;;;;;;;13.11;62.64;100252.67;109326;1254;65616;-68
2024/03/30 07:29:11;;;;;;;12.50;6.20;;;;;;;13.20;62.54;100258.02;104968;1260;138596;-68
2024/03/30 07:31:37;;;;;;;11.90;6.70;;;;;;;13.26;62.31;100251.90;105148;1258;62110;-67
2024/03/30 07:34:04;;;;;;;10.60;6.40;;;;;;;13.31;62.13;100256.17;105195;1260;61185;-68
2024/03/30 07:36:30;;;;;;;12.00;6.70;;;;;;;13.36;62.05;100256.56;106040;1256;137625;-68
2024/03/30 07:38:57;;;;;;;13.10;6.80;;;;;;;13.43;62.00;100247.63;105149;1254;67108;-68
2024/03/30 07:41:24;;;;;;;10.30;6.00;;;;;;;13.52;61.81;100245.02;104998;1257;137630;-67
2024/03/30 07:43:50;;;;;;;15.30;7.30;;;;;;;13.58;61.71;100248.91;105062;1259;60001;-67
2024/03/30 07:46:17;;;;;;;13.50;6.60;;;;;;;13.64;61.61;100254.25;105082;1255;61344;-67
2024/03/30 07:48:44;;;;;;;9.50;5.30;;;;;;;13.72;61.50;100256.92;105068;1254;137694;-67
2024/03/30 07:51:10;;;;;;;8.80;5.60;;;;;;;13.78;61.33;100256.23;105116;1259;66194;-67
2024/03/30 07:53:37;;;;;;;11.90;6.20;;;;;;;13.84;61.27;100260.67;104981;1260;137507;-67
2024/03/30 07:56:04;;;;;;;8.30;5.10;;;;;;;13.93;61.16;100270.41;105064;1263;60056;-67
2024/03/30 07:58:30;;;;;;;10.10;4.50;;;;;;;14.02;61.19;100272.55;105079;1257;137632;-67
2024/03/30 08:00:57;;;;;;;9.80;4.60;;;;;;;14.10;60.95;100267.98;105100;1255;74856;-67
2024/03/30 08:03:24;;;;;;;9.00;5.70;;;;;;;14.18;60.65;100266.07;104923;1264;66406;-69
2024/03/30 08:05:55;;;;;;;11.00;6.00;;;;;;;14.25;60.43;100262.02;104983;1259;137956;-68
2024/03/30 08:08:22;;;;;;;10.40;5.80;;;;;;;14.32;60.33;100262.57;105204;1260;61371;-67
2024/03/30 08:10:49;;;;;;;9.30;5.90;;;;;;;14.40;60.21;100265.58;105000;1260;138273;-67
2024/03/30 08:13:17;;;;;;;12.50;6.50;;;;;;;14.47;59.98;100265.42;107830;1260;75105;-67
2024/03/30 08:15:45;;;;;;;12.50;6.30;;;;;;;14.56;60.07;100267.04;109332;1254;66844;-67
2024/03/30 08:18:15;;;;;;;9.00;5.70;;;;;;;14.64;59.76;100267.06;109161;1254;137702;-67
2024/03/30 08:20:41;;;;;;;12.00;6.20;;;;;;;14.67;59.51;100266.18;109301;1254;59219;-67
2024/03/30 08:23:08;;;;;;;9.90;6.60;;;;;;;14.71;59.32;100261.23;105313;1259;138648;-66
2024/03/30 08:25:35;;;;;;;12.60;7.20;;;;;;;14.77;59.30;100260.88;105253;1253;75855;-67
2024/03/30 08:28:02;;;;;;;13.80;6.50;;;;;;;14.83;59.35;100257.88;105279;1259;65255;-68
2024/03/30 08:30:29;;;;;;;13.60;6.60;;;;;;;14.89;59.01;100258.05;105114;1257;137794;-67
2024/03/30 08:32:57;;;;;;;10.80;5.40;;;;;;;14.94;58.96;100252.05;105473;1259;61353;-65
2024/03/30 08:35:24;;;;;;;9.10;4.10;;;;;;;15.03;59.03;100250.80;105059;1259;137654;-66
2024/03/30 08:37:51;;;;;;;9.10;4.80;;;;;;;15.13;58.77;100249.37;109256;1255;73551;-67
2024/03/30 08:40:18;;;;;;;6.90;4.30;;;;;;;15.15;58.28;100249.89;109296;1254;65634;-68
2024/03/30 08:42:45;;;;;;;6.00;3.80;;;;;;;15.19;58.34;100253.06;105128;1267;137477;-67
2024/03/30 08:45:12;;;;;;;8.40;4.10;;;;;;;15.27;58.29;100257.48;109220;1257;59136;-67
2024/03/30 08:47:39;;;;;;;10.90;5.00;;;;;;;15.34;58.14;100260.45;109170;1254;137658;-67
2024/03/30 08:50:05;;;;;;;6.60;4.20;;;;;;;15.39;57.96;100255.48;109303;1253;74300;-67
2024/03/30 08:52:32;;;;;;;5.60;3.40;;;;;;;15.43;57.88;100260.07;105269;1261;137798;-68
2024/03/30 08:54:59;;;;;;;6.80;4.20;;;;;;;15.49;57.87;100256.52;105094;1254;71934;-68
2024/03/30 08:57:25;;;;;;;7.10;3.90;;;;;;;15.56;57.75;100253.50;105128;1255;61375;-66
2024/03/30 08:59:52;;;;;;;6.80;3.90;;;;;;;15.61;57.68;100257.19;104925;1267;137536;-66
2024/03/30 09:02:19;;;;;;;5.50;3.50;;;;;;;15.67;57.64;100254.52;105135;1255;75360;-67
2024/03/30 09:04:47;;;;;;;5.20;3.60;;;;;;;15.70;57.39;100250.98;104984;1254;137777;-67
2024/03/30 09:07:14;;;;;;;5.70;3.40;;;;;;;15.69;57.25;100249.73;109246;1254;73777;-67
2024/03/30 09:09:41;;;;;;;6.80;3.30;;;;;;;15.73;57.19;100248.66;109313;1254;59095;-68
2024/03/30 09:12:08;;;;;;;5.30;3.50;;;;;;;15.80;57.12;100250.27;109201;1254;137802;-67
2024/03/30 09:14:35;;;;;;;4.40;3.20;;;;;;;15.86;56.98;100246.70;109062;1254;73427;-67
2024/03/30 09:17:04;;;;;;;6.30;3.00;;;;;;;15.94;56.94;100244.54;108967;1254;138604;-67
2024/03/30 09:19:31;;;;;;;6.10;3.50;;;;;;;16.05;56.95;100246.23;109287;1254;72803;-67
2024/03/30 09:21:57;;;;;;;4.50;3.30;;;;;;;16.17;56.89;100249.71;109100;1254;59083;-67
2024/03/30 09:24:24;;;;;;;6.70;3.80;;;;;;;16.27;56.71;100252.13;109159;1254;137673;-66
2024/03/30 09:26:50;;;;;;;7.80;4.00;;;;;;;16.35;56.57;100248.89;107347;1254;75378;-67
2024/03/30 09:29:17;;;;;;;4.70;3.80;;;;;;;16.40;56.43;100249.02;104935;1259;137497;-66
2024/03/30 09:31:44;;;;;;;7.70;3.90;;;;;;;16.44;56.36;100248.29;104993;1260;72202;-66
2024/03/30 09:34:10;;;;;;;8.00;5.10;;;;;;;16.49;56.25;100251.96;105122;1259;61985;-67
2024/03/30 09:36:37;;;;;;;7.50;4.00;;;;;;;16.58;56.12;100250.85;104939;1257;137672;-67
2024/03/30 09:39:04;;;;;;;6.10;3.80;;;;;;;16.64;56.04;100250.27;105054;1260;75336;-67
2024/03/30 09:41:33;;;;;;;5.10;4.10;;;;;;;16.68;55.88;100252.02;104777;1260;137503;-67
2024/03/30 09:44:00;;;;;;;5.70;4.30;;;;;;;16.70;55.76;100244.55;104900;1261;73602;-67
2024/03/30 09:46:27;;;;;;;6.50;3.90;;;;;;;16.70;55.72;100244.55;104861;1261;138075;-67
2024/03/30 09:48:54;;;;;;;6.80;3.60;;;;;;;16.75;55.72;100242.21;104991;1255;61226;-67
2024/03/30 09:51:20;;;;;;;7.90;4.20;;;;;;;16.80;55.89;100235.80;104973;1260;73536;-66
2024/03/30 09:53:47;;;;;;;6.00;3.90;;;;;;;16.84;55.71;100238.08;104884;1260;137752;-67
2024/03/30 09:56:13;;;;;;;6.10;3.90;;;;;;;16.88;55.59;100233.63;105082;1260;72487;-67
2024/03/30 09:58:40;;;;;;;8.20;4.10;;;;;;;16.84;55.32;100233.48;104801;1254;137811;-66
2024/03/30 10:01:06;;;;;;;6.40;4.20;;;;;;;16.81;55.26;100231.70;105011;1255;61351;-67
2024/03/30 10:03:33;;;;;;;6.50;4.20;;;;;;;16.80;55.23;100230.65;105084;1254;75354;-67
2024/03/30 10:06:03;;;;;;;5.40;3.90;;;;;;;16.72;55.15;100230.19;105067;1257;137616;-68
2024/03/30 10:08:29;;;;;;;10.70;4.20;;;;;;;16.65;55.13;100228.48;109243;1257;72158;-67
2024/03/30 10:11:00;;;;;;;6.70;4.50;;;;;;;16.63;55.18;100226.36;108440;1256;138212;-67
2024/03/30 10:13:28;;;;;;;6.20;4.30;;;;;;;16.66;55.33;100224.22;109360;1253;60621;-67
2024/03/30 10:15:56;;;;;;;9.30;4.40;;;;;;;16.69;55.23;100220.99;109069;1254;74244;-67
2024/03/30 10:18:23;;;;;;;7.70;4.60;;;;;;;16.77;55.40;100220.41;107405;1254;138944;-67
2024/03/30 10:20:49;;;;;;;8.80;4.80;;;;;;;16.84;55.33;100222.14;105094;1257;71471;-67
2024/03/30 10:23:16;;;;;;;6.90;4.00;;;;;;;16.92;55.34;100222.42;104925;1255;137914;-66
2024/03/30 10:25:53;;;;;;;7.30;4.40;;;;;;;16.98;55.26;100220.42;105074;1259;60098;-67
2024/03/30 10:28:20;;;;;;;6.80;4.10;;;;;;;16.99;55.19;100218.98;109272;1254;74736;-67
2024/03/30 10:30:47;;;;;;;5.30;4.10;;;;;;;17.01;55.10;100219.14;109224;1254;138121;-67
2024/03/30 10:33:17;;;;;;;5.20;3.80;;;;;;;17.03;55.13;100218.25;105934;1254;72355;-67
2024/03/30 10:35:44;;;;;;;5.30;4.00;;;;;;;17.08;55.17;100214.47;109241;1254;137874;-68
2024/03/30 10:38:11;;;;;;;7.30;4.60;;;;;;;17.13;55.12;100209.64;109341;1254;59987;-68
2024/03/30 10:40:38;;;;;;;10.10;4.60;;;;;;;17.18;55.08;100203.90;109039;1254;138108;-68
2024/03/30 10:43:05;;;;;;;6.80;4.50;;;;;;;17.22;55.15;100205.46;109378;1254;64839;-68
2024/03/30 10:45:31;;;;;;;7.40;4.50;;;;;;;17.28;55.07;100205.55;108926;1259;70928;-68
2024/03/30 10:47:58;;;;;;;11.70;4.80;;;;;;;17.35;55.01;100206.55;104965;1254;137673;-67
2024/03/30 10:50:25;;;;;;;5.60;3.90;;;;;;;17.42;55.10;100201.84;104924;1261;61443;-67
2024/03/30 10:52:52;;;;;;;6.20;4.30;;;;;;;17.52;55.01;100203.69;109121;1254;137753;-68
2024/03/30 10:55:19;;;;;;;6.20;4.10;;;;;;;17.57;54.78;100203.98;109135;1254;66065;-67
2024/03/30 10:57:46;;;;;;;7.30;4.00;;;;;;;17.60;54.62;100206.95;108971;1254;73302;-66
2024/03/30 11:00:13;;;;;;;6.80;4.20;;;;;;;17.64;54.65;100205.84;105042;1254;137685;-67
2024/03/30 11:02:40;;;;;;;6.10;4.50;;;;;;;17.67;54.45;100220.35;109165;1254;59902;-67
2024/03/30 11:05:07;;;;;;;8.60;5.20;;;;;;;17.65;54.37;100221.63;107031;1254;137891;-69
2024/03/30 11:07:37;;;;;;;9.50;5.00;;;;;;;17.59;54.08;100221.70;105292;1254;66597;-67
2024/03/30 11:10:05;;;;;;;6.90;5.30;;;;;;;17.52;53.87;100227.81;105052;1260;73652;-67
2024/03/30 11:12:33;;;;;;;9.40;5.80;;;;;;;17.37;53.73;100224.09;105464;1257;137472;-66
2024/03/30 11:14:59;;;;;;;8.30;5.30;;;;;;;17.29;53.93;100223.81;105429;1257;61270;-67
2024/03/30 11:17:37;;;;;;;10.10;5.90;;;;;;;17.26;53.80;100225.62;104887;1260;137554;-66